Time;durP1;ratioP1;P1;durP2;ratioP2;P2;SDS_P1;SDS_P2;PMS_P1;PMS_P2;Temp;Humidity;BMP_temperature;BMP_pressure;BME280_temperature;BME280_humidity;BME280_pressure;Samples;Min_cycle;Max_cycle;Signal;HPM_P1;HPM_P2
2023/10/21 00:00:38;;;;;;;15.85;7.63;;;11.60;99.90;;;;;;5049885;28;20052;-66
2023/10/21 00:03:04;;;;;;;14.00;6.80;;;11.60;99.90;;;;;;5055323;28;20079;-66
2023/10/21 00:05:30;;;;;;;14.10;6.97;;;11.70;99.90;;;;;;5057947;28;20079;-69
2023/10/21 00:07:55;;;;;;;16.45;7.15;;;11.60;99.90;;;;;;5049281;28;20029;-69
2023/10/21 00:10:21;;;;;;;14.68;6.38;;;11.50;99.90;;;;;;5047997;28;20037;-69
2023/10/21 00:12:46;;;;;;;16.63;6.65;;;11.50;99.90;;;;;;5061591;28;20036;-68
2023/10/21 00:15:12;;;;;;;12.45;6.55;;;11.40;99.90;;;;;;5049522;28;20080;-65
2023/10/21 00:17:38;;;;;;;17.33;6.85;;;11.40;99.90;;;;;;5050136;28;20499;-66
2023/10/21 00:20:06;;;;;;;15.15;6.80;;;11.40;99.90;;;;;;5060900;28;20029;-66
2023/10/21 00:22:32;;;;;;;17.33;6.68;;;11.40;99.90;;;;;;5051659;28;20518;-66
2023/10/21 00:24:58;;;;;;;12.00;6.75;;;11.40;99.90;;;;;;5051303;28;20086;-66
2023/10/21 00:27:24;;;;;;;18.02;6.72;;;11.30;99.90;;;;;;5064481;28;20363;-69
2023/10/21 00:29:49;;;;;;;12.35;6.70;;;11.30;99.90;;;;;;5047290;28;20076;-66
2023/10/21 00:32:16;;;;;;;11.50;5.95;;;11.30;99.90;;;;;;5051579;28;20537;-69
2023/10/21 00:34:41;;;;;;;12.50;5.97;;;11.30;99.90;;;;;;5057339;28;20075;-66
2023/10/21 00:37:10;;;;;;;17.67;6.40;;;11.30;99.90;;;;;;5064074;28;20521;-68
2023/10/21 00:39:37;;;;;;;13.10;6.55;;;11.30;99.90;;;;;;5052826;28;20048;-68
2023/10/21 00:42:03;;;;;;;14.23;6.47;;;11.20;99.90;;;;;;5059411;28;20033;-67
2023/10/21 00:44:29;;;;;;;19.15;6.90;;;11.20;99.90;;;;;;5049015;28;20048;-68
2023/10/21 00:46:55;;;;;;;15.90;6.97;;;11.20;99.90;;;;;;5053947;28;20565;-68
2023/10/21 00:49:21;;;;;;;14.98;7.25;;;11.20;99.90;;;;;;5058061;28;20108;-68
2023/10/21 00:51:48;;;;;;;13.32;7.55;;;11.20;99.90;;;;;;5060910;28;20120;-68
2023/10/21 00:54:16;;;;;;;15.57;6.57;;;11.20;99.90;;;;;;5060875;28;20032;-68
2023/10/21 00:56:41;;;;;;;17.30;7.43;;;11.10;99.90;;;;;;5052145;28;20045;-68
2023/10/21 00:59:07;;;;;;;13.70;7.20;;;11.10;99.90;;;;;;5059880;28;20033;-68
2023/10/21 01:01:36;;;;;;;15.88;7.47;;;11.10;99.90;;;;;;5054034;28;20041;-68
2023/10/21 01:04:05;;;;;;;16.38;7.32;;;11.10;99.90;;;;;;5051517;28;20067;-69
2023/10/21 01:06:32;;;;;;;13.43;6.45;;;11.00;99.90;;;;;;5061649;28;20055;-69
2023/10/21 01:08:59;;;;;;;15.18;7.32;;;11.00;99.90;;;;;;5046161;28;20119;-67
2023/10/21 01:11:24;;;;;;;16.17;7.38;;;11.00;99.90;;;;;;5049171;28;20047;-69
2023/10/21 01:13:51;;;;;;;17.63;7.43;;;11.00;99.90;;;;;;5048767;28;20483;-69
2023/10/21 01:16:17;;;;;;;19.08;8.15;;;11.00;99.90;;;;;;5063164;28;20048;-68
2023/10/21 01:18:42;;;;;;;20.30;8.40;;;11.00;99.90;;;;;;5064070;28;20038;-68
2023/10/21 01:21:08;;;;;;;20.98;8.73;;;11.00;99.90;;;;;;5046423;28;20402;-71
2023/10/21 01:23:34;;;;;;;19.30;8.65;;;11.00;99.90;;;;;;5050557;28;20072;-71
2023/10/21 01:26:01;;;;;;;22.67;9.90;;;11.00;99.90;;;;;;5056030;28;20091;-67
2023/10/21 01:28:27;;;;;;;20.83;10.23;;;11.00;99.90;;;;;;5046521;28;20155;-69
2023/10/21 01:30:52;;;;;;;25.23;10.70;;;11.00;99.90;;;;;;5055452;28;20119;-68
2023/10/21 01:33:18;;;;;;;18.33;9.73;;;10.90;99.90;;;;;;5046316;28;20036;-69
2023/10/21 01:35:44;;;;;;;20.08;10.30;;;10.90;99.90;;;;;;5055707;28;20070;-70
2023/10/21 01:38:10;;;;;;;18.63;10.43;;;10.90;99.90;;;;;;5048027;28;20029;-70
2023/10/21 01:40:35;;;;;;;32.80;14.25;;;10.90;99.90;;;;;;5046185;28;20521;-70
2023/10/21 01:43:01;;;;;;;30.95;13.88;;;10.90;99.90;;;;;;5055239;28;20033;-68
2023/10/21 01:45:28;;;;;;;29.38;14.48;;;10.90;99.90;;;;;;5047754;28;20086;-68
2023/10/21 01:47:53;;;;;;;30.23;14.20;;;10.90;99.90;;;;;;5050964;28;20040;-69
2023/10/21 01:50:19;;;;;;;27.63;14.13;;;10.90;99.90;;;;;;5057791;28;20033;-69
2023/10/21 01:52:45;;;;;;;26.60;13.35;;;10.90;99.90;;;;;;5063527;28;20043;-70
2023/10/21 01:55:11;;;;;;;30.38;14.88;;;10.90;99.90;;;;;;5051722;28;20041;-70
2023/10/21 01:57:37;;;;;;;29.15;14.32;;;10.90;99.90;;;;;;5052026;28;20047;-70
2023/10/21 02:00:05;;;;;;;32.05;15.20;;;10.80;99.90;;;;;;5045943;28;20041;-70
2023/10/21 02:02:31;;;;;;;30.23;14.70;;;10.90;99.90;;;;;;5063862;28;20566;-70
2023/10/21 02:04:57;;;;;;;31.20;14.43;;;10.90;99.90;;;;;;5051605;28;20121;-70
2023/10/21 02:07:22;;;;;;;33.35;14.70;;;10.80;99.90;;;;;;5051465;28;20415;-70
2023/10/21 02:09:48;;;;;;;28.45;14.68;;;10.90;99.90;;;;;;5063084;28;20041;-70
2023/10/21 02:12:14;;;;;;;29.85;14.95;;;10.90;99.90;;;;;;5050278;28;20066;-68
2023/10/21 02:14:40;;;;;;;30.60;15.00;;;10.90;99.90;;;;;;5053068;28;20434;-70
2023/10/21 02:17:05;;;;;;;35.08;15.20;;;10.90;99.90;;;;;;5054617;28;20033;-70
2023/10/21 02:19:31;;;;;;;32.25;14.35;;;10.90;99.90;;;;;;5053501;28;20032;-70
2023/10/21 02:21:58;;;;;;;31.73;14.60;;;10.90;99.90;;;;;;5056860;28;20402;-70
2023/10/21 02:24:24;;;;;;;28.48;14.82;;;10.90;99.90;;;;;;5061432;28;20084;-70
2023/10/21 02:26:49;;;;;;;29.20;14.40;;;10.90;99.90;;;;;;5055970;28;20061;-70
2023/10/21 02:29:15;;;;;;;30.33;14.55;;;10.90;99.90;;;;;;5046412;28;20061;-70
2023/10/21 02:31:41;;;;;;;29.60;15.02;;;10.90;99.90;;;;;;5046961;28;20039;-70
2023/10/21 02:34:07;;;;;;;29.33;13.98;;;10.90;99.90;;;;;;5050792;28;20391;-70
2023/10/21 02:36:33;;;;;;;33.30;15.50;;;10.90;99.90;;;;;;5053596;28;20129;-69
2023/10/21 02:38:59;;;;;;;28.83;14.43;;;10.90;99.90;;;;;;5051490;28;20057;-70
2023/10/21 02:41:26;;;;;;;27.65;13.60;;;10.90;99.90;;;;;;5057651;28;20086;-70
2023/10/21 02:44:01;;;;;;;30.15;14.30;;;10.90;99.90;;;;;;5052086;28;20439;-70
2023/10/21 02:46:26;;;;;;;27.38;14.32;;;10.90;99.90;;;;;;5059882;28;20028;-68
2023/10/21 02:48:52;;;;;;;31.77;15.40;;;10.90;99.90;;;;;;5055693;28;20099;-70
2023/10/21 02:51:18;;;;;;;30.17;14.15;;;10.90;99.90;;;;;;5062842;28;20048;-68
2023/10/21 02:53:44;;;;;;;31.23;14.63;;;10.90;99.90;;;;;;5049089;28;20048;-70
2023/10/21 02:56:10;;;;;;;32.55;14.50;;;10.90;99.90;;;;;;5057819;28;20044;-69
2023/10/21 02:58:36;;;;;;;29.60;14.80;;;10.90;99.90;;;;;;5050901;28;20041;-68
2023/10/21 03:01:14;;;;;;;26.52;14.63;;;10.90;99.90;;;;;;5047915;22;20051;-68
2023/10/21 03:03:43;;;;;;;27.63;14.13;;;10.90;99.90;;;;;;5013083;28;20051;-66
2023/10/21 03:06:09;;;;;;;32.08;15.27;;;10.90;99.90;;;;;;5015795;28;20056;-68
2023/10/21 03:08:36;;;;;;;29.00;14.25;;;10.90;99.90;;;;;;5032574;28;20309;-68
2023/10/21 03:11:05;;;;;;;26.60;13.25;;;10.90;99.90;;;;;;5032533;28;20044;-68
2023/10/21 03:13:35;;;;;;;25.73;14.05;;;10.90;99.90;;;;;;5031353;28;20041;-66
2023/10/21 03:16:08;;;;;;;26.48;13.27;;;10.90;99.90;;;;;;5039197;28;20087;-66
2023/10/21 03:18:35;;;;;;;26.70;13.45;;;10.90;99.90;;;;;;5022249;28;20050;-67
2023/10/21 03:21:01;;;;;;;33.42;14.75;;;10.90;99.90;;;;;;5032442;28;20038;-68
2023/10/21 03:23:27;;;;;;;31.17;14.60;;;10.90;99.90;;;;;;5032493;28;20041;-68
2023/10/21 03:25:56;;;;;;;22.60;12.63;;;10.90;99.90;;;;;;5014480;28;20120;-68
2023/10/21 03:28:22;;;;;;;23.90;12.65;;;10.90;99.90;;;;;;5031212;28;20044;-68
2023/10/21 03:30:48;;;;;;;27.75;13.75;;;10.80;99.90;;;;;;5032310;28;20037;-68
2023/10/21 03:33:14;;;;;;;26.73;12.43;;;10.80;99.90;;;;;;5033235;28;20087;-68
2023/10/21 03:35:40;;;;;;;25.73;13.48;;;10.80;99.90;;;;;;5028312;28;20515;-66
2023/10/21 03:38:05;;;;;;;27.15;13.30;;;10.80;99.90;;;;;;5014139;28;20601;-68
2023/10/21 03:40:31;;;;;;;23.15;12.57;;;10.80;99.90;;;;;;5032109;28;20785;-68
2023/10/21 03:42:56;;;;;;;22.15;11.88;;;10.80;99.90;;;;;;5030709;28;20036;-68
2023/10/21 03:45:22;;;;;;;23.60;12.30;;;10.70;99.90;;;;;;5001306;28;20076;-66
2023/10/21 03:47:48;;;;;;;24.40;12.32;;;10.70;99.90;;;;;;5010558;28;20049;-68
2023/10/21 03:50:14;;;;;;;21.58;11.55;;;10.70;99.90;;;;;;5033795;28;20037;-68
2023/10/21 03:52:40;;;;;;;22.83;11.57;;;10.70;99.90;;;;;;5026114;28;20052;-68
2023/10/21 03:55:06;;;;;;;23.17;12.20;;;10.70;99.90;;;;;;5028548;28;20406;-68
2023/10/21 03:57:31;;;;;;;22.08;11.40;;;10.70;99.90;;;;;;5025015;28;20042;-68
2023/10/21 04:00:00;;;;;;;21.73;12.05;;;10.70;99.90;;;;;;5029842;28;20045;-68
2023/10/21 04:02:25;;;;;;;21.55;11.45;;;10.70;99.90;;;;;;5023753;28;20034;-68
2023/10/21 04:04:51;;;;;;;19.23;11.57;;;10.70;99.90;;;;;;5030968;28;20115;-68
2023/10/21 04:07:16;;;;;;;24.20;11.65;;;10.70;99.90;;;;;;5025504;28;20541;-66
2023/10/21 04:09:42;;;;;;;22.23;11.65;;;10.70;99.90;;;;;;5038196;28;20564;-68
2023/10/21 04:12:08;;;;;;;20.13;11.50;;;10.70;99.90;;;;;;5030694;28;20041;-68
2023/10/21 04:14:34;;;;;;;17.95;10.68;;;10.70;99.90;;;;;;5028325;28;20046;-68
2023/10/21 04:17:00;;;;;;;20.52;11.40;;;10.70;99.90;;;;;;5031007;28;20510;-68
2023/10/21 04:19:25;;;;;;;20.65;11.30;;;10.70;99.90;;;;;;5029683;28;20427;-68
2023/10/21 04:21:52;;;;;;;23.05;12.05;;;10.70;99.90;;;;;;5031278;28;20128;-66
2023/10/21 04:24:18;;;;;;;21.95;10.70;;;10.70;99.90;;;;;;5027529;28;20491;-67
2023/10/21 04:26:43;;;;;;;20.00;11.95;;;10.70;99.90;;;;;;5030645;28;20033;-68
2023/10/21 04:29:09;;;;;;;19.35;11.45;;;10.70;99.90;;;;;;5031167;28;20483;-67
2023/10/21 04:31:35;;;;;;;17.70;10.85;;;10.70;99.90;;;;;;5030493;28;20501;-68
2023/10/21 04:34:01;;;;;;;21.02;11.45;;;10.80;99.90;;;;;;5013334;28;20104;-68
2023/10/21 04:36:27;;;;;;;25.67;11.77;;;10.70;99.90;;;;;;5031714;28;20045;-68
2023/10/21 04:38:52;;;;;;;19.67;11.73;;;10.80;99.90;;;;;;5030371;28;20380;-68
2023/10/21 04:41:18;;;;;;;20.52;10.75;;;10.80;99.90;;;;;;5031438;28;20030;-67
2023/10/21 04:43:43;;;;;;;21.77;10.75;;;10.80;99.90;;;;;;5032908;28;20064;-66
2023/10/21 04:46:09;;;;;;;21.05;11.48;;;10.80;99.90;;;;;;5030262;28;20041;-68
2023/10/21 04:48:35;;;;;;;22.60;11.52;;;10.80;99.90;;;;;;5013770;28;20518;-68
2023/10/21 04:51:01;;;;;;;17.95;11.02;;;10.80;99.90;;;;;;5013078;28;20371;-68
2023/10/21 04:53:26;;;;;;;19.33;10.70;;;10.80;99.90;;;;;;5034272;28;20036;-68
2023/10/21 04:55:52;;;;;;;19.30;10.50;;;10.80;99.90;;;;;;5030459;28;20491;-66
2023/10/21 04:58:17;;;;;;;17.50;11.00;;;10.80;99.90;;;;;;5030255;28;20029;-68
2023/10/21 05:00:43;;;;;;;23.05;11.23;;;10.80;99.90;;;;;;5028937;28;20037;-68
2023/10/21 05:03:08;;;;;;;18.15;10.70;;;10.80;99.90;;;;;;5012926;28;20077;-68
2023/10/21 05:05:34;;;;;;;17.60;10.50;;;10.80;99.90;;;;;;5022840;28;20042;-66
2023/10/21 05:08:01;;;;;;;18.95;11.07;;;10.80;99.90;;;;;;5014386;28;20079;-66
2023/10/21 05:10:27;;;;;;;19.65;10.65;;;10.80;99.90;;;;;;5028242;28;20419;-68
2023/10/21 05:12:53;;;;;;;17.05;10.15;;;10.80;99.90;;;;;;5016606;28;20045;-67
2023/10/21 05:15:18;;;;;;;20.30;10.45;;;10.80;99.90;;;;;;5015667;28;20091;-67
2023/10/21 05:17:44;;;;;;;20.80;10.60;;;10.90;99.90;;;;;;5015705;28;20113;-68
2023/10/21 05:20:11;;;;;;;19.67;11.45;;;10.80;99.90;;;;;;5033956;28;20049;-68
2023/10/21 05:22:37;;;;;;;22.05;11.18;;;10.90;99.90;;;;;;5026335;28;20034;-68
2023/10/21 05:25:03;;;;;;;17.55;10.25;;;10.90;99.90;;;;;;5033286;28;20115;-67
2023/10/21 05:27:29;;;;;;;17.88;10.60;;;10.90;99.90;;;;;;5015954;28;20073;-67
2023/10/21 05:29:58;;;;;;;21.45;10.88;;;10.90;99.90;;;;;;5035369;28;20072;-68
2023/10/21 05:32:23;;;;;;;20.23;11.25;;;10.90;99.90;;;;;;5015036;28;20041;-68
2023/10/21 05:34:49;;;;;;;18.50;11.18;;;10.90;99.90;;;;;;5033649;28;20033;-67
2023/10/21 05:37:14;;;;;;;20.08;12.18;;;10.90;99.90;;;;;;5019395;28;20521;-68
2023/10/21 05:39:40;;;;;;;23.95;11.70;;;11.00;99.90;;;;;;5016557;28;20037;-68
2023/10/21 05:42:06;;;;;;;23.38;11.70;;;10.90;99.90;;;;;;5036907;28;20235;-68
2023/10/21 05:44:31;;;;;;;23.95;12.80;;;11.00;99.90;;;;;;5012160;28;20049;-68
2023/10/21 05:46:58;;;;;;;19.52;11.88;;;11.00;99.90;;;;;;5038742;28;20052;-66
2023/10/21 05:49:24;;;;;;;21.52;11.00;;;11.00;99.90;;;;;;5029877;28;20033;-67
2023/10/21 05:51:49;;;;;;;22.25;12.18;;;11.00;99.90;;;;;;5015039;28;20041;-67
2023/10/21 05:54:15;;;;;;;20.92;10.80;;;11.00;99.90;;;;;;5034104;28;20041;-68
2023/10/21 05:56:41;;;;;;;26.27;11.20;;;11.00;99.90;;;;;;5019308;28;20487;-68
2023/10/21 05:59:06;;;;;;;20.23;11.65;;;11.00;99.90;;;;;;5012493;28;20103;-68
2023/10/21 06:01:32;;;;;;;19.25;11.88;;;11.00;99.90;;;;;;5026338;28;20407;-68
2023/10/21 06:03:57;;;;;;;22.08;12.35;;;11.10;99.90;;;;;;5011341;28;20091;-66
2023/10/21 06:06:23;;;;;;;20.73;12.25;;;11.10;99.90;;;;;;5028359;28;20037;-68
2023/10/21 06:08:49;;;;;;;24.30;12.30;;;11.10;99.90;;;;;;5030477;28;20116;-68
2023/10/21 06:11:14;;;;;;;20.25;11.77;;;11.10;99.90;;;;;;5024228;28;20495;-68
2023/10/21 06:13:40;;;;;;;20.92;11.95;;;11.10;99.90;;;;;;5034259;28;20034;-67
2023/10/21 06:16:06;;;;;;;22.10;11.80;;;11.20;99.90;;;;;;5030952;28;20037;-66
2023/10/21 06:18:32;;;;;;;22.20;12.38;;;11.20;99.90;;;;;;5034953;28;20510;-67
2023/10/21 06:20:58;;;;;;;19.25;11.80;;;11.20;99.90;;;;;;5029580;28;20033;-69
2023/10/21 06:23:23;;;;;;;21.55;11.82;;;11.20;99.90;;;;;;5032916;28;20067;-69
2023/10/21 06:25:49;;;;;;;21.70;12.07;;;11.20;99.90;;;;;;5033337;28;20122;-69
2023/10/21 06:28:15;;;;;;;21.50;11.80;;;11.30;99.90;;;;;;5026497;28;20040;-69
2023/10/21 06:30:40;;;;;;;22.02;11.77;;;11.30;99.90;;;;;;5035441;28;20104;-67
2023/10/21 06:33:06;;;;;;;23.83;12.70;;;11.30;99.90;;;;;;5029326;28;20053;-69
2023/10/21 06:35:32;;;;;;;21.75;12.18;;;11.30;99.90;;;;;;5035012;28;20038;-69
2023/10/21 06:37:58;;;;;;;20.65;11.93;;;11.30;99.90;;;;;;5037000;28;20323;-69
2023/10/21 06:40:23;;;;;;;20.00;12.05;;;11.40;99.90;;;;;;5016053;28;20037;-69
2023/10/21 06:42:49;;;;;;;20.70;12.35;;;11.40;99.90;;;;;;5002472;28;20140;-69
2023/10/21 06:45:15;;;;;;;19.45;11.63;;;11.50;99.90;;;;;;5036386;28;20038;-68
2023/10/21 06:47:40;;;;;;;27.20;12.93;;;11.50;99.90;;;;;;5019423;28;20038;-69
2023/10/21 06:50:06;;;;;;;21.20;12.35;;;11.60;99.90;;;;;;5036345;28;20065;-69
2023/10/21 06:52:32;;;;;;;21.73;12.82;;;11.60;99.90;;;;;;5019065;28;20041;-69
2023/10/21 06:54:58;;;;;;;24.52;12.85;;;11.60;99.90;;;;;;5033742;28;20025;-68
2023/10/21 06:57:24;;;;;;;24.58;12.57;;;11.60;99.90;;;;;;5039875;28;20466;-69
2023/10/21 06:59:52;;;;;;;21.40;12.90;;;11.60;99.90;;;;;;5036059;28;20037;-69
2023/10/21 07:02:17;;;;;;;21.88;12.43;;;11.60;99.90;;;;;;5031413;28;20101;-69
2023/10/21 07:04:44;;;;;;;26.27;13.05;;;11.70;99.90;;;;;;5004118;28;20129;-69
2023/10/21 07:07:10;;;;;;;23.35;12.35;;;11.70;99.90;;;;;;5029950;28;20543;-69
2023/10/21 07:09:37;;;;;;;22.90;13.13;;;11.70;99.90;;;;;;5024155;28;20040;-69
2023/10/21 07:12:03;;;;;;;23.45;12.85;;;11.70;99.90;;;;;;5014869;28;20043;-69
2023/10/21 07:14:29;;;;;;;23.05;12.45;;;11.70;99.90;;;;;;5015913;28;20041;-69
2023/10/21 07:16:55;;;;;;;21.95;12.98;;;11.70;99.90;;;;;;5034961;28;20124;-69
2023/10/21 07:19:22;;;;;;;21.50;11.85;;;11.70;99.90;;;;;;5036064;28;20072;-69
2023/10/21 07:21:48;;;;;;;26.05;13.05;;;11.70;99.90;;;;;;5038117;28;20045;-69
2023/10/21 07:24:14;;;;;;;17.73;11.85;;;11.70;99.90;;;;;;5039171;28;20059;-67
2023/10/21 07:26:40;;;;;;;27.63;12.80;;;11.70;99.90;;;;;;5031727;28;20353;-69
2023/10/21 07:29:07;;;;;;;22.48;13.32;;;11.80;99.90;;;;;;5036494;28;20033;-69
2023/10/21 07:31:34;;;;;;;27.52;12.88;;;11.80;99.90;;;;;;5015716;28;20049;-69
2023/10/21 07:34:00;;;;;;;23.80;12.93;;;11.80;99.90;;;;;;5035205;28;20056;-69
2023/10/21 07:36:26;;;;;;;20.98;13.00;;;12.20;99.90;;;;;;5035543;28;20045;-69
2023/10/21 07:38:52;;;;;;;23.63;12.88;;;11.90;99.90;;;;;;5034389;28;20454;-69
2023/10/21 07:41:19;;;;;;;26.42;13.98;;;12.00;99.90;;;;;;5018486;28;20458;-67
2023/10/21 07:43:44;;;;;;;22.08;11.73;;;12.00;99.90;;;;;;5034111;28;20037;-68
2023/10/21 07:46:10;;;;;;;19.40;11.63;;;12.00;99.90;;;;;;5017540;28;20106;-67
2023/10/21 07:48:36;;;;;;;21.15;11.23;;;12.10;99.90;;;;;;5034743;28;20124;-69
2023/10/21 07:51:01;;;;;;;20.67;11.77;;;12.10;99.90;;;;;;5035087;28;20037;-69
2023/10/21 07:53:27;;;;;;;19.40;11.93;;;12.20;99.90;;;;;;5017215;28;20044;-69
2023/10/21 07:55:53;;;;;;;19.48;11.30;;;12.20;99.90;;;;;;5016123;28;20041;-68
2023/10/21 07:58:19;;;;;;;22.10;11.20;;;12.20;99.90;;;;;;5028870;28;20101;-68
2023/10/21 08:00:44;;;;;;;20.27;11.50;;;12.20;99.90;;;;;;5034944;28;20504;-67
2023/10/21 08:03:10;;;;;;;20.50;10.90;;;12.20;99.90;;;;;;5030076;28;20029;-69
2023/10/21 08:05:36;;;;;;;19.88;9.57;;;12.20;99.90;;;;;;5034199;28;20037;-69
2023/10/21 08:08:03;;;;;;;22.23;10.32;;;12.20;99.90;;;;;;5034345;28;20034;-69
2023/10/21 08:10:29;;;;;;;17.70;10.50;;;12.30;99.90;;;;;;5034094;28;20087;-69
2023/10/21 08:12:55;;;;;;;23.83;10.70;;;12.30;99.90;;;;;;5035354;28;20073;-68
2023/10/21 08:15:20;;;;;;;16.25;10.50;;;12.30;99.90;;;;;;5039204;28;20419;-69
2023/10/21 08:17:46;;;;;;;21.65;10.90;;;12.40;99.90;;;;;;5034554;28;20067;-69
2023/10/21 08:20:11;;;;;;;18.23;10.13;;;12.40;99.90;;;;;;5032876;28;20034;-69
2023/10/21 08:22:37;;;;;;;19.17;9.57;;;12.40;99.90;;;;;;5034486;28;20683;-67
2023/10/21 08:25:03;;;;;;;17.23;9.40;;;12.50;99.90;;;;;;5033790;28;20034;-69
2023/10/21 08:27:28;;;;;;;17.38;9.15;;;12.50;99.90;;;;;;5029002;28;20045;-69
2023/10/21 08:29:54;;;;;;;18.33;9.88;;;12.60;99.90;;;;;;5034495;28;20073;-69
2023/10/21 08:32:19;;;;;;;14.93;9.48;;;12.70;99.90;;;;;;5034157;28;20040;-69
2023/10/21 08:34:45;;;;;;;19.70;9.90;;;12.70;99.90;;;;;;5033997;28;20092;-69
2023/10/21 08:37:11;;;;;;;18.67;8.50;;;12.70;99.90;;;;;;5035164;28;20464;-69
2023/10/21 08:39:36;;;;;;;18.30;8.43;;;12.70;99.90;;;;;;5034737;28;20553;-69
2023/10/21 08:42:02;;;;;;;21.50;9.52;;;12.80;99.90;;;;;;5032419;28;20102;-68
2023/10/21 08:44:30;;;;;;;16.15;8.68;;;12.90;99.90;;;;;;5035809;28;20152;-68
2023/10/21 08:46:57;;;;;;;15.25;8.65;;;12.90;99.90;;;;;;4993224;28;20030;-69
2023/10/21 08:49:24;;;;;;;14.85;8.30;;;13.00;99.90;;;;;;5033259;28;20061;-69
2023/10/21 08:51:52;;;;;;;12.10;8.05;;;13.10;99.90;;;;;;5016030;28;20037;-68
2023/10/21 08:54:19;;;;;;;15.10;7.53;;;13.20;99.90;;;;;;5025150;28;20423;-68
2023/10/21 08:56:45;;;;;;;24.02;8.18;;;13.30;99.90;;;;;;5032534;28;20045;-68
2023/10/21 08:59:11;;;;;;;17.38;7.47;;;13.30;99.90;;;;;;5012912;28;20487;-69
2023/10/21 09:01:38;;;;;;;13.70;7.53;;;13.40;99.90;;;;;;5015700;28;20053;-69
2023/10/21 09:04:04;;;;;;;10.50;6.75;;;13.40;99.90;;;;;;5032001;28;20045;-69
2023/10/21 09:06:30;;;;;;;17.15;6.70;;;13.50;99.90;;;;;;5011582;28;20097;-69
2023/10/21 09:08:55;;;;;;;10.80;6.38;;;13.50;99.90;;;;;;5031702;28;20029;-68
2023/10/21 09:11:25;;;;;;;9.63;5.72;;;13.50;99.90;;;;;;5032126;28;20103;-69
2023/10/21 09:13:52;;;;;;;10.25;5.75;;;13.50;99.90;;;;;;5034845;28;20565;-69
2023/10/21 09:16:19;;;;;;;10.73;5.40;;;13.50;99.90;;;;;;5031450;28;20044;-71
2023/10/21 09:19:01;;;;;;;8.02;5.30;;;13.50;99.90;;;;;;5029870;28;20033;-68
2023/10/21 09:21:38;;;;;;;13.77;5.00;;;13.60;99.90;;;;;;5032778;28;20488;-68
2023/10/21 09:24:09;;;;;;;8.18;5.10;;;13.60;99.90;;;;;;5036613;28;20041;-68
2023/10/21 09:26:42;;;;;;;8.98;4.70;;;13.60;99.90;;;;;;5014279;28;20124;-69
2023/10/21 09:29:12;;;;;;;8.65;3.92;;;13.60;99.90;;;;;;5023154;28;20044;-69
2023/10/21 09:31:41;;;;;;;11.38;4.05;;;13.60;99.90;;;;;;5032981;28;20604;-70
2023/10/21 09:34:07;;;;;;;7.15;3.70;;;13.60;99.90;;;;;;5027440;28;20044;-72
2023/10/21 09:36:40;;;;;;;6.88;3.40;;;13.60;99.90;;;;;;5026847;28;20038;-70
2023/10/21 09:39:05;;;;;;;6.97;3.40;;;13.50;99.90;;;;;;5032606;28;20041;-70
2023/10/21 09:41:31;;;;;;;4.93;3.00;;;13.50;99.90;;;;;;5008947;28;20050;-70
2023/10/21 09:44:01;;;;;;;8.30;3.55;;;13.50;99.90;;;;;;5025700;28;20411;-70
2023/10/21 09:46:30;;;;;;;5.88;3.30;;;13.50;99.90;;;;;;5022462;28;20044;-69
2023/10/21 09:49:00;;;;;;;5.88;3.38;;;13.50;99.90;;;;;;5006985;28;20479;-70
2023/10/21 09:51:30;;;;;;;5.00;3.17;;;13.60;99.90;;;;;;5011279;28;20080;-70
2023/10/21 09:54:00;;;;;;;6.43;3.30;;;13.60;99.90;;;;;;5009275;28;20041;-71
2023/10/21 09:56:26;;;;;;;5.82;3.33;;;13.60;99.90;;;;;;5010184;28;20099;-71
2023/10/21 09:58:54;;;;;;;4.32;2.95;;;13.60;99.90;;;;;;5027221;28;20033;-70
2023/10/21 10:01:23;;;;;;;6.32;2.85;;;13.60;99.90;;;;;;5031810;28;20042;-70
2023/10/21 10:03:51;;;;;;;4.78;2.70;;;13.60;99.90;;;;;;5027887;28;20041;-70
2023/10/21 10:06:19;;;;;;;3.90;2.30;;;13.60;99.90;;;;;;5030281;28;20500;-70
2023/10/21 10:08:47;;;;;;;6.57;2.88;;;13.60;99.90;;;;;;5016147;28;20092;-70
2023/10/21 10:11:15;;;;;;;3.70;1.92;;;13.60;99.90;;;;;;5025902;28;20451;-70
2023/10/21 10:13:49;;;;;;;3.47;1.63;;;13.70;99.90;;;;;;5031203;28;20073;-70
2023/10/21 10:16:20;;;;;;;2.70;1.60;;;13.70;99.90;;;;;;5003801;28;20399;-70
2023/10/21 10:18:55;;;;;;;3.58;1.60;;;13.70;99.90;;;;;;5013754;28;20045;-69
2023/10/21 10:21:21;;;;;;;3.97;1.60;;;13.70;99.90;;;;;;5031373;28;20503;-69
2023/10/21 10:23:51;;;;;;;5.15;1.50;;;13.70;99.90;;;;;;5030641;28;20044;-69
2023/10/21 10:26:36;;;;;;;2.42;1.50;;;13.80;99.90;;;;;;5017297;28;20041;-69
2023/10/21 10:29:26;;;;;;;3.35;1.60;;;13.80;99.90;;;;;;5026110;28;20400;-69
2023/10/21 10:32:14;;;;;;;1.92;1.30;;;13.90;99.90;;;;;;5015781;28;20045;-69
2023/10/21 10:34:58;;;;;;;3.13;1.40;;;13.90;99.90;;;;;;5012629;28;20120;-69
2023/10/21 10:37:32;;;;;;;3.72;1.40;;;13.90;99.90;;;;;;5035246;28;20517;-69
2023/10/21 10:40:05;;;;;;;3.15;1.40;;;13.90;99.90;;;;;;5031335;28;20104;-69
2023/10/21 10:42:35;;;;;;;4.68;1.20;;;13.90;99.90;;;;;;5016402;28;20037;-69
2023/10/21 10:45:01;;;;;;;1.52;1.10;;;13.90;99.90;;;;;;5030687;28;20512;-71
2023/10/21 10:47:26;;;;;;;3.75;1.30;;;13.90;99.90;;;;;;5030711;28;20108;-69
2023/10/21 10:50:00;;;;;;;5.00;1.30;;;13.80;99.90;;;;;;5031658;28;20121;-69
2023/10/21 10:52:32;;;;;;;2.30;1.10;;;13.80;99.90;;;;;;5030512;28;20045;-71
2023/10/21 10:54:59;;;;;;;2.28;1.20;;;13.80;99.90;;;;;;5012644;28;20041;-69
2023/10/21 10:57:25;;;;;;;1.92;0.98;;;13.80;99.90;;;;;;5023868;28;20037;-69
2023/10/21 10:59:51;;;;;;;3.70;1.30;;;13.70;99.90;;;;;;5031032;28;20317;-69
2023/10/21 11:02:19;;;;;;;3.10;1.35;;;13.70;99.90;;;;;;5026751;28;20422;-68
2023/10/21 11:04:49;;;;;;;3.42;1.65;;;13.70;99.90;;;;;;5021114;28;20488;-69
2023/10/21 11:07:19;;;;;;;2.42;1.25;;;13.80;99.90;;;;;;5025364;28;20083;-69
2023/10/21 11:09:44;;;;;;;3.05;1.13;;;13.80;99.90;;;;;;5022874;28;20030;-68
2023/10/21 11:12:12;;;;;;;3.42;1.10;;;13.80;99.90;;;;;;5031651;28;20078;-69
2023/10/21 11:14:38;;;;;;;2.28;0.93;;;13.80;99.90;;;;;;5033123;28;20041;-68
2023/10/21 11:17:04;;;;;;;2.95;1.17;;;13.80;99.90;;;;;;5013125;28;20415;-69
2023/10/21 11:19:31;;;;;;;1.98;1.00;;;13.70;99.90;;;;;;5030477;28;20064;-68
2023/10/21 11:21:56;;;;;;;1.63;1.10;;;13.70;99.90;;;;;;5030062;28;20049;-69
2023/10/21 11:24:25;;;;;;;2.05;0.95;;;13.70;99.90;;;;;;5033017;28;20483;-70
2023/10/21 11:26:52;;;;;;;4.80;1.30;;;13.70;99.90;;;;;;5030101;28;20092;-69
2023/10/21 11:29:18;;;;;;;1.23;1.00;;;13.70;99.90;;;;;;5030390;28;20037;-70
2023/10/21 11:31:44;;;;;;;3.40;1.35;;;13.70;99.90;;;;;;5014752;28;20075;-68
2023/10/21 11:34:17;;;;;;;2.40;0.90;;;13.70;99.90;;;;;;5011212;28;20037;-69
2023/10/21 11:36:44;;;;;;;3.08;1.00;;;13.70;99.90;;;;;;5030504;28;20121;-68
2023/10/21 11:39:14;;;;;;;2.95;1.10;;;13.80;99.90;;;;;;5030306;28;20234;-68
2023/10/21 11:41:47;;;;;;;3.17;1.20;;;13.80;99.90;;;;;;5029931;28;20467;-69
2023/10/21 11:44:14;;;;;;;1.83;0.90;;;13.80;99.90;;;;;;5029360;28;20060;-68
2023/10/21 11:46:41;;;;;;;3.38;1.30;;;13.80;99.90;;;;;;5030458;28;20040;-68
2023/10/21 11:49:16;;;;;;;3.33;1.20;;;13.80;99.90;;;;;;5011789;28;20447;-69
2023/10/21 11:51:43;;;;;;;3.47;1.10;;;13.80;99.90;;;;;;5016480;28;20048;-69
2023/10/21 11:54:17;;;;;;;1.88;1.00;;;13.90;99.90;;;;;;5029763;28;20048;-68
2023/10/21 11:56:56;;;;;;;3.25;1.17;;;13.90;99.90;;;;;;5029912;28;20037;-69
2023/10/21 12:16:05;;;;;;;2.58;1.20;;;14.50;99.90;;;;;;5026060;28;20050;-68
2023/10/21 12:19:05;;;;;;;2.80;1.05;;;14.50;99.90;;;;;;5031957;28;20119;-68
2023/10/21 12:37:30;;;;;;;3.53;1.63;;;14.60;99.90;;;;;;5031949;28;20918;-68
2023/10/21 12:39:57;;;;;;;7.50;1.42;;;14.70;99.90;;;;;;5020819;28;20033;-68
2023/10/21 12:42:28;;;;;;;3.65;1.25;;;14.70;99.90;;;;;;5034415;28;20103;-67
2023/10/21 12:44:57;;;;;;;1.63;1.02;;;14.70;99.90;;;;;;5032062;28;20080;-68
2023/10/21 12:47:23;;;;;;;4.40;1.05;;;14.60;99.90;;;;;;5036237;28;20083;-68
2023/10/21 12:49:50;;;;;;;4.20;1.10;;;14.60;99.90;;;;;;5031706;28;20029;-68
2023/10/21 12:52:19;;;;;;;2.42;1.10;;;14.60;99.90;;;;;;5026741;28;20601;-68
2023/10/21 12:54:45;;;;;;;2.97;1.10;;;14.50;99.90;;;;;;5019800;28;20412;-69
2023/10/21 12:57:12;;;;;;;3.55;1.20;;;14.50;99.90;;;;;;5028137;28;20040;-67
2023/10/21 12:59:37;;;;;;;6.25;1.33;;;14.60;99.90;;;;;;5029232;28;20042;-67
2023/10/21 13:02:10;;;;;;;5.03;1.33;;;14.60;99.90;;;;;;5030733;28;20104;-68
2023/10/21 13:04:37;;;;;;;4.57;1.15;;;14.80;99.90;;;;;;5023802;28;20603;-67